createdAt,value
2019-04-29T00:00:54.128Z,6.47
2019-04-29T00:01:54.116Z,6.43
2019-04-29T00:02:54.152Z,6.38
2019-04-29T00:03:54.096Z,6.35
2019-04-29T00:04:54.083Z,6.40
2019-04-29T00:05:54.080Z,6.35
2019-04-29T00:06:54.064Z,6.35
2019-04-29T00:07:54.091Z,6.31
2019-04-29T00:08:54.037Z,6.25
2019-04-29T00:09:54.026Z,6.18
2019-04-29T00:10:54.018Z,6.24
2019-04-29T00:11:54.046Z,6.28
2019-04-29T00:12:53.993Z,6.19
2019-04-29T00:13:53.983Z,6.15
2019-04-29T00:14:53.970Z,6.11
2019-04-29T00:15:53.958Z,6.11
2019-04-29T00:16:53.952Z,6.05
2019-04-29T00:17:53.980Z,5.97
2019-04-29T00:18:53.974Z,5.95
2019-04-29T00:19:53.917Z,5.87
2019-04-29T00:20:53.908Z,5.85
2019-04-29T00:21:53.933Z,5.85
2019-04-29T00:22:53.887Z,5.82
2019-04-29T00:24:03.712Z,5.84
2019-04-29T00:24:54.903Z,5.84
2019-04-29T00:25:53.850Z,5.94
2019-04-29T00:26:53.880Z,5.91
2019-04-29T00:27:53.828Z,5.91
2019-04-29T00:28:53.819Z,5.91
2019-04-29T00:29:53.805Z,5.80
2019-04-29T00:30:53.797Z,5.73
2019-04-29T00:31:53.827Z,5.85
2019-04-29T00:32:53.773Z,5.79
2019-04-29T00:33:53.802Z,5.97
2019-04-29T00:34:53.756Z,5.88
2019-04-29T00:35:53.742Z,6.00
2019-04-29T00:36:53.730Z,6.09
2019-04-29T00:37:53.761Z,6.15
2019-04-29T00:38:53.719Z,6.09
2019-04-29T00:39:53.697Z,6.27
2019-04-29T00:40:53.691Z,6.16
2019-04-29T00:41:53.722Z,6.34
2019-04-29T00:42:53.669Z,6.32
2019-04-29T00:43:53.653Z,6.31
2019-04-29T00:44:53.689Z,6.34
2019-04-29T00:45:53.676Z,6.37
2019-04-29T00:46:53.621Z,6.32
2019-04-29T00:47:53.607Z,6.37
2019-04-29T00:48:53.600Z,6.34
2019-04-29T00:49:53.584Z,6.40
2019-04-29T00:50:53.573Z,6.47
2019-04-29T00:51:53.603Z,6.40
2019-04-29T00:52:53.598Z,6.47
2019-04-29T00:53:53.541Z,6.42
2019-04-29T00:54:53.535Z,6.45
2019-04-29T00:55:53.518Z,6.46
2019-04-29T00:56:53.509Z,6.52
2019-04-29T00:57:53.496Z,6.35
2019-04-29T00:58:53.531Z,6.45
2019-04-29T00:59:53.475Z,6.47
2019-04-29T01:00:53.467Z,6.38
2019-04-29T01:01:53.451Z,6.34
2019-04-29T01:02:53.443Z,6.43
2019-04-29T01:03:53.472Z,6.46
2019-04-29T01:04:53.423Z,6.45
2019-04-29T01:05:53.408Z,6.38
2019-04-29T01:06:53.412Z,6.37
2019-04-29T01:07:53.387Z,6.21
2019-04-29T01:08:53.416Z,6.18
2019-04-29T01:09:53.362Z,6.19
2019-04-29T01:10:53.358Z,6.08
2019-04-29T01:11:53.341Z,5.97
2019-04-29T01:12:53.372Z,6.00
2019-04-29T01:13:53.368Z,5.93
2019-04-29T01:14:53.309Z,5.94
2019-04-29T01:15:53.296Z,5.95
2019-04-29T01:16:53.289Z,5.95
2019-04-29T01:17:53.274Z,6.00
2019-04-29T01:18:53.264Z,6.02
2019-04-29T01:19:53.296Z,5.98
2019-04-29T01:20:53.242Z,5.98
2019-04-29T01:21:53.231Z,6.02
2019-04-29T01:22:53.222Z,6.09
2019-04-29T01:23:53.251Z,6.25
2019-04-29T01:24:53.198Z,6.27
2019-04-29T01:25:53.187Z,6.37
2019-04-29T01:26:53.176Z,6.32
2019-04-29T01:27:53.166Z,6.31
2019-04-29T01:28:53.160Z,6.28
2019-04-29T01:29:53.187Z,6.25
2019-04-29T01:30:53.132Z,6.42
2019-04-29T01:31:53.124Z,6.42
2019-04-29T01:32:53.120Z,6.35
2019-04-29T01:33:53.165Z,6.43
2019-04-29T01:34:53.138Z,6.42
2019-04-29T01:35:53.077Z,6.40
2019-04-29T01:36:53.083Z,6.47
2019-04-29T01:37:53.095Z,6.47
2019-04-29T01:38:53.054Z,6.37
2019-04-29T01:39:53.032Z,6.45
2019-04-29T01:40:53.061Z,6.50
2019-04-29T01:41:53.050Z,6.42
2019-04-29T01:42:52.999Z,6.50
2019-04-29T01:43:53.027Z,6.46
2019-04-29T01:44:52.980Z,6.43
2019-04-29T01:45:52.977Z,6.49
2019-04-29T01:46:52.995Z,6.56
2019-04-29T01:47:52.943Z,6.47
2019-04-29T01:48:52.933Z,6.38
2019-04-29T01:49:52.922Z,6.47
2019-04-29T01:50:52.915Z,6.35
2019-04-29T01:51:52.915Z,6.42
2019-04-29T01:52:52.932Z,6.34
2019-04-29T01:53:52.877Z,6.46
2019-04-29T01:54:52.908Z,6.45
2019-04-29T01:55:52.855Z,6.32
2019-04-29T01:56:52.849Z,6.30
2019-04-29T01:57:52.834Z,6.37
2019-04-29T01:58:52.823Z,6.31
2019-04-29T01:59:52.852Z,6.34
2019-04-29T02:00:52.804Z,6.25
2019-04-29T02:01:52.801Z,6.32
2019-04-29T02:02:52.780Z,6.31
2019-04-29T02:03:52.768Z,6.27
2019-04-29T02:04:52.761Z,6.45
2019-04-29T02:05:52.811Z,6.47
2019-04-29T02:06:52.780Z,6.37
2019-04-29T02:07:52.723Z,6.40
2019-04-29T02:08:52.761Z,6.46
2019-04-29T02:09:52.712Z,6.46
2019-04-29T02:10:52.703Z,6.45
2019-04-29T02:11:52.724Z,6.50
2019-04-29T02:12:52.671Z,6.45
2019-04-29T02:13:52.658Z,6.46
2019-04-29T02:14:52.649Z,6.49
2019-04-29T02:15:52.639Z,6.49
2019-04-29T02:16:52.667Z,6.49
2019-04-29T02:17:52.614Z,6.46
2019-04-29T02:18:52.603Z,6.47
2019-04-29T02:19:52.594Z,6.49
2019-04-29T02:20:52.586Z,6.43
2019-04-29T02:21:52.576Z,6.43
2019-04-29T02:22:52.600Z,6.30
2019-04-29T02:23:52.549Z,6.35
2019-04-29T02:24:52.536Z,6.31
2019-04-29T02:25:52.527Z,6.35
2019-04-29T02:26:52.563Z,6.42
2019-04-29T02:27:52.515Z,6.40
2019-04-29T02:28:52.494Z,6.38
2019-04-29T02:29:52.490Z,6.47
2019-04-29T02:30:52.479Z,6.45
2019-04-29T02:31:52.460Z,6.40
2019-04-29T02:32:52.496Z,6.35
2019-04-29T02:33:52.438Z,6.31
2019-04-29T02:34:52.428Z,6.35
2019-04-29T02:35:52.459Z,6.45
2019-04-29T02:36:52.407Z,6.38
2019-04-29T02:37:52.398Z,6.43
2019-04-29T02:38:52.389Z,6.38
2019-04-29T02:39:52.413Z,6.32
2019-04-29T02:40:52.363Z,6.31
2019-04-29T02:41:52.355Z,6.25
2019-04-29T02:42:52.337Z,6.18
2019-04-29T02:43:52.371Z,6.16
2019-04-29T02:44:52.318Z,6.13
2019-04-29T02:45:52.304Z,6.08
2019-04-29T02:46:52.301Z,6.12
2019-04-29T02:47:52.335Z,6.13
2019-04-29T02:48:52.346Z,6.12
2019-04-29T02:49:52.259Z,6.13
2019-04-29T02:50:52.250Z,6.12
2019-04-29T02:51:52.238Z,6.11
2019-04-29T02:52:52.291Z,6.08
2019-04-29T02:53:52.217Z,6.19
2019-04-29T02:54:52.252Z,6.24
2019-04-29T02:55:52.194Z,6.32
2019-04-29T02:56:52.187Z,6.28
2019-04-29T02:57:52.172Z,6.32
2019-04-29T02:58:52.161Z,6.45
2019-04-29T02:59:52.150Z,6.32
2019-04-29T03:00:52.186Z,6.19
2019-04-29T03:01:52.505Z,6.16
2019-04-29T03:02:52.119Z,6.19
2019-04-29T03:03:52.109Z,6.24
2019-04-29T03:04:52.108Z,6.27
2019-04-29T03:05:52.085Z,6.13
2019-04-29T03:06:52.120Z,6.12
2019-04-29T03:07:52.061Z,6.11
2019-04-29T03:08:52.053Z,6.13
2019-04-29T03:09:52.048Z,6.09
2019-04-29T03:10:52.041Z,5.94
2019-04-29T03:11:52.018Z,5.95
2019-04-29T03:12:52.055Z,5.94
2019-04-29T03:13:51.996Z,6.00
2019-04-29T03:14:51.985Z,5.85
2019-04-29T03:15:51.979Z,5.87
2019-04-29T03:16:51.964Z,5.93
2019-04-29T03:17:51.950Z,5.97
2019-04-29T03:18:51.980Z,6.00
2019-04-29T03:19:51.932Z,5.88
2019-04-29T03:20:51.959Z,5.91
2019-04-29T03:21:51.912Z,5.94
2019-04-29T03:22:51.940Z,6.02
2019-04-29T03:23:51.886Z,6.06
2019-04-29T03:24:51.914Z,6.19
2019-04-29T03:25:51.860Z,6.18
2019-04-29T03:26:51.857Z,6.08
2019-04-29T03:27:51.865Z,5.97
2019-04-29T03:28:51.830Z,6.00
2019-04-29T03:29:51.819Z,5.98
2019-04-29T03:30:51.846Z,6.05
2019-04-29T03:31:51.840Z,5.93
2019-04-29T03:32:51.785Z,5.87
2019-04-29T03:33:51.773Z,6.00
2019-04-29T03:34:51.765Z,6.00
2019-04-29T03:35:51.768Z,6.03
2019-04-29T03:36:51.781Z,6.02
2019-04-29T03:37:51.738Z,6.05
2019-04-29T03:38:51.729Z,6.13
2019-04-29T03:39:51.751Z,6.06
2019-04-29T03:40:51.695Z,6.15
2019-04-29T03:41:51.685Z,6.08
2019-04-29T03:42:51.717Z,6.15
2019-04-29T03:43:51.663Z,6.09
2019-04-29T03:44:51.657Z,6.03
2019-04-29T03:45:51.640Z,6.05
2019-04-29T03:46:51.633Z,6.00
2019-04-29T03:47:51.659Z,5.97
2019-04-29T03:48:51.655Z,6.00
2019-04-29T03:49:51.595Z,5.97
2019-04-29T03:50:51.600Z,5.98
2019-04-29T03:51:51.574Z,6.02
2019-04-29T03:52:51.565Z,5.88
2019-04-29T03:53:51.552Z,5.90
2019-04-29T03:54:51.579Z,6.11
2019-04-29T03:55:51.529Z,6.05
2019-04-29T03:56:51.548Z,5.97
2019-04-29T03:57:51.506Z,5.97
2019-04-29T03:58:51.500Z,5.94
2019-04-29T03:59:51.486Z,6.03
2019-04-29T04:00:51.514Z,6.16
2019-04-29T04:01:51.463Z,6.06
2019-04-29T04:02:51.455Z,6.08
2019-04-29T04:03:51.439Z,6.08
2019-04-29T04:04:51.468Z,5.98
2019-04-29T04:05:51.461Z,5.97
2019-04-29T04:06:51.446Z,5.87
2019-04-29T04:07:51.398Z,5.77
2019-04-29T04:09:05.524Z,5.88
2019-04-29T04:09:52.375Z,5.82
2019-04-29T04:10:51.362Z,5.84
2019-04-29T04:11:51.394Z,5.93
2019-04-29T04:12:51.350Z,5.93
2019-04-29T04:13:51.364Z,5.93
2019-04-29T04:14:51.318Z,5.98
2019-04-29T04:15:51.306Z,5.94
2019-04-29T04:16:51.338Z,6.00
2019-04-29T04:17:51.291Z,6.08
2019-04-29T04:18:51.275Z,6.05
2019-04-29T04:19:51.263Z,5.97
2019-04-29T04:20:51.297Z,6.05
2019-04-29T04:21:51.240Z,5.98
2019-04-29T04:22:51.231Z,5.94
2019-04-29T04:23:51.218Z,6.08
2019-04-29T04:24:51.207Z,6.08
2019-04-29T04:25:51.197Z,5.97
2019-04-29T04:26:51.229Z,5.97
2019-04-29T04:27:51.218Z,6.05
2019-04-29T04:28:51.206Z,6.00
2019-04-29T04:29:51.156Z,5.91
2019-04-29T04:30:51.148Z,5.91
2019-04-29T04:31:51.132Z,5.87
2019-04-29T04:32:51.160Z,6.00
2019-04-29T04:33:51.107Z,5.91
2019-04-29T04:34:51.207Z,6.08
2019-04-29T04:35:51.085Z,6.12
2019-04-29T04:36:51.075Z,6.12
2019-04-29T04:37:51.060Z,5.94
2019-04-29T04:38:51.051Z,6.02
2019-04-29T04:39:51.039Z,6.00
2019-04-29T04:40:51.071Z,5.87
2019-04-29T04:41:51.058Z,5.90
2019-04-29T04:42:51.032Z,6.00
2019-04-29T04:43:51.070Z,6.06
2019-04-29T04:44:50.988Z,5.94
2019-04-29T04:45:50.975Z,6.00
2019-04-29T04:46:50.964Z,6.00
2019-04-29T04:47:50.995Z,6.12
2019-04-29T04:48:50.983Z,5.93
2019-04-29T04:49:50.954Z,5.82
2019-04-29T04:50:50.930Z,5.73
2019-04-29T04:51:51.025Z,5.75
2019-04-29T04:52:50.944Z,5.72
2019-04-29T04:53:50.896Z,5.87
2019-04-29T04:54:50.895Z,5.88
2019-04-29T04:55:50.867Z,5.80
2019-04-29T04:56:50.895Z,5.85
2019-04-29T04:57:50.840Z,5.93
2019-04-29T04:58:50.868Z,5.82
2019-04-29T04:59:50.821Z,5.90
2019-04-29T05:00:50.805Z,5.95
2019-04-29T05:01:50.808Z,5.93
2019-04-29T05:02:50.876Z,6.06
2019-04-29T05:03:50.828Z,6.00
2019-04-29T05:04:50.814Z,5.95
2019-04-29T05:05:50.752Z,5.87
2019-04-29T05:06:50.767Z,5.98
2019-04-29T05:07:50.743Z,6.15
2019-04-29T05:08:50.723Z,6.18
2019-04-29T05:09:50.722Z,6.18
2019-04-29T05:10:51.507Z,6.19
2019-04-29T05:11:50.747Z,6.19
2019-04-29T05:12:50.679Z,6.13
2019-04-29T05:13:50.683Z,6.13
2019-04-29T05:14:50.653Z,6.15
2019-04-29T05:15:50.668Z,6.16
2019-04-29T05:16:50.639Z,6.19
2019-04-29T05:17:53.169Z,6.24
2019-04-29T05:18:50.612Z,6.18
2019-04-29T05:19:50.616Z,6.24
2019-04-29T05:20:50.631Z,6.18
2019-04-29T05:21:50.589Z,6.15
2019-04-29T05:22:50.566Z,6.13
2019-04-29T05:23:50.559Z,6.21
2019-04-29T05:24:50.552Z,6.11
2019-04-29T05:25:50.540Z,6.19
2019-04-29T05:26:50.563Z,6.28
2019-04-29T05:27:50.588Z,6.28
2019-04-29T05:28:50.499Z,6.34
2019-04-29T05:29:50.519Z,6.45
2019-04-29T05:30:50.486Z,6.49
2019-04-29T05:31:50.468Z,6.60
2019-04-29T05:32:50.514Z,6.61
2019-04-29T05:33:50.450Z,6.63
2019-04-29T05:34:50.444Z,6.63
2019-04-29T05:35:50.454Z,6.57
2019-04-29T05:36:50.414Z,6.52
2019-04-29T05:37:50.461Z,6.49
2019-04-29T05:38:50.412Z,6.49
2019-04-29T05:39:50.404Z,6.50
2019-04-29T05:40:50.374Z,6.50
2019-04-29T05:41:50.377Z,6.47
2019-04-29T05:42:52.641Z,6.65
2019-04-29T05:43:50.349Z,6.61
2019-04-29T05:44:50.370Z,6.71
2019-04-29T05:45:50.326Z,6.75
2019-04-29T05:46:50.351Z,6.70
2019-04-29T05:47:52.500Z,6.65
2019-04-29T05:48:51.336Z,6.56
2019-04-29T05:49:50.323Z,6.50
2019-04-29T05:50:52.181Z,6.46
2019-04-29T05:51:50.317Z,6.46
2019-04-29T05:52:50.332Z,6.50
2019-04-29T05:53:54.898Z,6.55
2019-04-29T05:54:51.287Z,6.57
2019-04-29T05:55:52.515Z,6.52
2019-04-29T05:56:50.212Z,6.64
2019-04-29T05:57:50.231Z,6.64
2019-04-29T05:58:50.203Z,6.67
2019-04-29T05:59:50.163Z,6.56
2019-04-29T06:00:50.168Z,6.64
2019-04-29T06:01:50.139Z,6.61
2019-04-29T06:02:50.164Z,6.73
2019-04-29T06:03:50.178Z,6.73
2019-04-29T06:04:52.342Z,6.91
2019-04-29T06:05:50.125Z,6.79
2019-04-29T06:06:50.127Z,6.81
2019-04-29T06:07:51.733Z,6.91
2019-04-29T06:08:50.093Z,7.00
2019-04-29T06:09:50.150Z,6.97
2019-04-29T06:10:50.044Z,7.01
2019-04-29T06:11:50.024Z,6.91
2019-04-29T06:12:50.099Z,7.06
2019-04-29T06:13:50.009Z,6.96
2019-04-29T06:14:49.999Z,7.01
2019-04-29T06:15:50.023Z,7.03
2019-04-29T06:16:52.710Z,7.19
2019-04-29T06:17:50.048Z,7.21
2019-04-29T06:18:50.018Z,7.33
2019-04-29T06:19:49.954Z,7.31
2019-04-29T06:20:49.946Z,7.25
2019-04-29T06:21:49.928Z,7.28
2019-04-29T06:22:49.906Z,7.28
2019-04-29T06:23:49.912Z,7.18
2019-04-29T06:24:49.951Z,7.22
2019-04-29T06:25:49.923Z,7.18
2019-04-29T06:26:49.872Z,7.08
2019-04-29T06:27:49.871Z,7.15
2019-04-29T06:28:49.874Z,7.24
2019-04-29T06:29:49.890Z,7.44
2019-04-29T06:30:51.606Z,7.60
2019-04-29T06:31:49.884Z,7.62
2019-04-29T06:32:49.796Z,7.66
2019-04-29T06:33:49.787Z,7.76
2019-04-29T06:34:49.803Z,7.77
2019-04-29T06:35:49.766Z,7.81
2019-04-29T06:36:49.976Z,7.88
2019-04-29T06:37:49.798Z,7.87
2019-04-29T06:38:49.744Z,7.92
2019-04-29T06:39:49.943Z,7.88
2019-04-29T06:40:49.731Z,7.84
2019-04-29T06:41:49.774Z,7.91
2019-04-29T06:42:53.454Z,7.77
2019-04-29T06:43:54.169Z,7.71
2019-04-29T06:44:50.800Z,7.68
2019-04-29T06:45:49.681Z,7.62
2019-04-29T06:46:50.221Z,7.50
2019-04-29T06:47:49.697Z,7.52
2019-04-29T06:48:49.693Z,7.44
2019-04-29T06:49:49.626Z,7.52
2019-04-29T06:50:49.906Z,7.52
2019-04-29T06:51:49.681Z,7.55
2019-04-29T06:52:49.605Z,7.44
2019-04-29T06:53:49.630Z,7.43
2019-04-29T06:54:49.606Z,7.44
2019-04-29T06:55:49.614Z,7.40
2019-04-29T06:56:49.542Z,7.28
2019-04-29T06:57:49.516Z,7.28
2019-04-29T06:58:49.549Z,7.13
2019-04-29T06:59:49.596Z,7.21
2019-04-29T07:00:51.087Z,7.16
2019-04-29T07:01:49.485Z,7.19
2019-04-29T07:02:49.986Z,7.22
2019-04-29T07:03:49.497Z,7.37
2019-04-29T07:04:49.468Z,7.39
2019-04-29T07:05:51.549Z,7.43
2019-04-29T07:06:57.284Z,7.42
2019-04-29T07:07:50.420Z,7.60
2019-04-29T07:08:49.405Z,7.66
2019-04-29T07:09:49.414Z,7.66
2019-04-29T07:10:49.434Z,7.81
2019-04-29T07:11:49.363Z,7.84
2019-04-29T07:12:49.355Z,8.09
2019-04-29T07:13:49.468Z,8.16
2019-04-29T07:14:49.332Z,8.13
2019-04-29T07:15:49.329Z,8.10
2019-04-29T07:16:49.364Z,8.02
2019-04-29T07:17:49.312Z,7.95
2019-04-29T07:18:53.416Z,7.88
2019-04-29T07:19:49.276Z,7.92
2019-04-29T07:20:49.288Z,8.02
2019-04-29T07:21:53.242Z,8.12
2019-04-29T07:22:50.292Z,8.24
2019-04-29T07:23:49.287Z,8.29
2019-04-29T07:24:49.223Z,8.26
2019-04-29T07:25:49.213Z,8.32
2019-04-29T07:26:49.208Z,8.32
2019-04-29T07:27:49.573Z,8.35
2019-04-29T07:28:53.174Z,8.38
2019-04-29T07:29:49.209Z,8.41
2019-04-29T07:31:01.174Z,8.55
2019-04-29T07:31:50.150Z,8.42
2019-04-29T07:32:49.137Z,8.47
2019-04-29T07:33:49.134Z,8.39
2019-04-29T07:34:49.121Z,8.49
2019-04-29T07:35:49.650Z,8.37
2019-04-29T07:36:49.226Z,8.41
2019-04-29T07:37:49.474Z,8.44
2019-04-29T07:38:51.666Z,8.55
2019-04-29T07:39:51.008Z,8.60
2019-04-29T07:40:50.041Z,8.68
2019-04-29T07:41:49.494Z,8.77
2019-04-29T07:42:49.521Z,8.81
2019-04-29T07:43:49.043Z,8.85
2019-04-29T07:44:52.812Z,8.83
2019-04-29T07:45:49.011Z,8.85
2019-04-29T07:46:57.075Z,8.89
2019-04-29T07:47:56.734Z,9.06
2019-04-29T07:49:00.688Z,9.15
2019-04-29T07:49:51.492Z,9.16
2019-04-29T07:50:49.036Z,9.18
2019-04-29T07:51:49.043Z,9.16
2019-04-29T07:52:49.969Z,9.24
2019-04-29T07:53:48.971Z,9.22
2019-04-29T07:54:54.936Z,9.27
2019-04-29T07:55:49.891Z,9.42
2019-04-29T07:56:48.878Z,9.45
2019-04-29T07:57:52.191Z,9.52
2019-04-29T07:58:48.845Z,9.60
2019-04-29T07:59:48.833Z,9.73
2019-04-29T08:00:49.961Z,9.72
2019-04-29T08:01:48.875Z,9.88
2019-04-29T08:02:48.895Z,9.85
2019-04-29T08:03:48.844Z,9.85
2019-04-29T08:04:48.917Z,9.90
2019-04-29T08:05:48.773Z,9.94
2019-04-29T08:06:48.840Z,9.96
2019-04-29T08:07:49.025Z,9.87
2019-04-29T08:08:55.053Z,9.88
2019-04-29T08:09:49.768Z,10.12
2019-04-29T08:10:56.190Z,10.05
2019-04-29T08:11:49.872Z,10.20
2019-04-29T08:12:48.694Z,10.26
2019-04-29T08:13:48.756Z,10.27
2019-04-29T08:14:48.714Z,10.34
2019-04-29T08:15:48.659Z,10.41
2019-04-29T08:16:48.680Z,10.41
2019-04-29T08:17:51.346Z,10.48
2019-04-29T08:18:49.611Z,10.54
2019-04-29T08:19:48.634Z,10.65
2019-04-29T08:20:48.647Z,10.54
2019-04-29T08:21:49.721Z,10.49
2019-04-29T08:22:48.627Z,10.49
2019-04-29T08:23:48.720Z,10.58
2019-04-29T08:24:50.425Z,10.60
2019-04-29T08:25:50.930Z,10.79
2019-04-29T08:26:48.596Z,10.85
2019-04-29T08:27:48.698Z,10.95
2019-04-29T08:28:48.521Z,10.93
2019-04-29T08:29:48.553Z,10.87
2019-04-29T08:30:48.527Z,10.98
2019-04-29T08:31:52.041Z,11.00
2019-04-29T08:32:50.728Z,11.04
2019-04-29T08:33:48.620Z,11.20
2019-04-29T08:34:48.450Z,11.22
2019-04-29T08:35:48.452Z,11.31
2019-04-29T08:36:48.500Z,11.20
2019-04-29T08:37:48.420Z,11.22
2019-04-29T08:38:48.409Z,11.27
2019-04-29T08:40:03.497Z,11.41
2019-04-29T08:40:50.502Z,11.49
2019-04-29T08:41:48.410Z,11.43
2019-04-29T08:42:48.495Z,11.51
2019-04-29T08:43:48.363Z,11.49
2019-04-29T08:44:48.359Z,11.43
2019-04-29T08:45:48.350Z,11.41
2019-04-29T08:46:51.741Z,11.54
2019-04-29T08:47:48.309Z,11.46
2019-04-29T08:48:48.339Z,11.49
2019-04-29T08:49:48.282Z,11.48
2019-04-29T08:50:48.268Z,11.49
2019-04-29T08:51:48.314Z,11.49
2019-04-29T08:52:48.377Z,11.54
2019-04-29T08:53:48.371Z,11.62
2019-04-29T08:54:50.870Z,11.69
2019-04-29T08:55:49.267Z,11.89
2019-04-29T08:57:02.327Z,11.87
2019-04-29T08:57:50.169Z,11.88
2019-04-29T08:58:50.994Z,11.89
2019-04-29T08:59:48.568Z,11.97
2019-04-29T09:00:57.674Z,12.00
2019-04-29T09:01:48.274Z,12.18
2019-04-29T09:02:49.376Z,12.15
2019-04-29T09:03:48.773Z,12.13
2019-04-29T09:04:53.727Z,11.97
2019-04-29T09:06:03.962Z,12.00
2019-04-29T09:06:49.307Z,12.13
2019-04-29T09:07:48.165Z,12.36
2019-04-29T09:08:56.210Z,12.50
2019-04-29T09:09:49.119Z,12.59
2019-04-29T09:10:48.150Z,12.72
2019-04-29T09:11:49.422Z,12.84
2019-04-29T09:12:48.689Z,12.90
2019-04-29T09:13:48.035Z,12.88
2019-04-29T09:14:48.105Z,12.90
2019-04-29T09:15:48.074Z,12.69
2019-04-29T09:16:48.209Z,12.71
2019-04-29T09:17:48.010Z,12.77
2019-04-29T09:18:48.099Z,12.79
2019-04-29T09:19:49.625Z,12.77
2019-04-29T09:20:47.951Z,12.81
2019-04-29T09:21:49.399Z,12.79
2019-04-29T09:22:47.925Z,12.93
2019-04-29T09:23:47.953Z,12.83
2019-04-29T09:24:49.429Z,12.72
2019-04-29T09:26:01.715Z,12.81
2019-04-29T09:26:48.932Z,12.76
2019-04-29T09:27:47.944Z,12.93
2019-04-29T09:28:49.709Z,12.99
2019-04-29T09:29:58.904Z,13.02
2019-04-29T09:30:48.928Z,13.08
2019-04-29T09:31:47.820Z,13.17
2019-04-29T09:32:47.845Z,13.21
2019-04-29T09:33:49.067Z,13.29
2019-04-29T09:34:49.043Z,13.23
2019-04-29T09:35:59.281Z,13.29
2019-04-29T09:36:49.803Z,13.29
2019-04-29T09:37:49.393Z,13.17
2019-04-29T09:38:50.255Z,13.20
2019-04-29T09:39:47.811Z,13.23
2019-04-29T09:40:48.269Z,13.21
2019-04-29T09:41:47.697Z,13.27
2019-04-29T09:42:50.175Z,13.17
2019-04-29T09:43:47.746Z,13.29
2019-04-29T09:44:47.681Z,13.38
2019-04-29T09:45:47.675Z,13.26
2019-04-29T09:46:47.642Z,13.36
2019-04-29T09:47:47.714Z,13.40
2019-04-29T09:48:47.657Z,13.40
2019-04-29T09:49:47.635Z,13.38
2019-04-29T09:50:47.591Z,13.39
2019-04-29T09:51:47.586Z,13.32
2019-04-29T09:52:48.568Z,13.45
2019-04-29T09:53:47.580Z,13.38
2019-04-29T09:54:47.587Z,13.26
2019-04-29T09:55:47.544Z,13.39
2019-04-29T09:56:48.361Z,13.38
2019-04-29T09:57:47.528Z,13.39
2019-04-29T09:58:47.761Z,13.39
2019-04-29T09:59:47.577Z,13.51
2019-04-29T10:00:47.525Z,13.60
2019-04-29T10:01:50.561Z,13.53
2019-04-29T10:02:48.704Z,13.49
2019-04-29T10:03:47.472Z,13.39
2019-04-29T10:04:56.339Z,13.51
2019-04-29T10:05:48.431Z,13.61
2019-04-29T10:06:47.417Z,13.78
2019-04-29T10:07:47.414Z,13.75
2019-04-29T10:08:47.450Z,13.65
2019-04-29T10:09:57.112Z,13.88
2019-04-29T10:10:48.627Z,14.05
2019-04-29T10:11:47.677Z,14.08
2019-04-29T10:12:47.338Z,14.04
2019-04-29T10:13:47.326Z,14.08
2019-04-29T10:14:47.369Z,14.04
2019-04-29T10:15:47.329Z,14.09
2019-04-29T10:16:49.872Z,14.09
2019-04-29T10:17:50.804Z,14.12
2019-04-29T10:18:48.268Z,14.28
2019-04-29T10:19:47.299Z,14.16
2019-04-29T10:20:47.322Z,14.13
2019-04-29T10:21:47.255Z,14.16
2019-04-29T10:22:50.203Z,14.13
2019-04-29T10:23:48.214Z,13.98
2019-04-29T10:24:47.224Z,14.04
2019-04-29T10:25:47.248Z,14.21
2019-04-29T10:26:47.352Z,14.41
2019-04-29T10:27:47.232Z,14.31
2019-04-29T10:28:47.154Z,14.28
2019-04-29T10:29:50.775Z,14.23
2019-04-29T10:30:48.166Z,14.27
2019-04-29T10:31:47.190Z,14.26
2019-04-29T10:32:47.223Z,14.58
2019-04-29T10:33:50.224Z,15.45
2019-04-29T10:34:48.214Z,15.81
2019-04-29T10:35:47.156Z,16.28
2019-04-29T10:36:47.064Z,16.13
2019-04-29T10:37:47.102Z,16.18
2019-04-29T10:38:47.167Z,15.91
2019-04-29T10:39:47.148Z,15.48
2019-04-29T10:40:47.093Z,15.29
2019-04-29T10:41:47.007Z,15.12
2019-04-29T10:42:47.046Z,15.01
2019-04-29T10:43:49.475Z,14.96
2019-04-29T10:44:48.028Z,14.85
2019-04-29T10:45:46.972Z,14.89
2019-04-29T10:46:46.997Z,14.82
2019-04-29T10:47:46.941Z,15.03
2019-04-29T10:48:46.946Z,15.08
2019-04-29T10:49:49.641Z,15.27
2019-04-29T10:50:51.597Z,15.38
2019-04-29T10:51:47.955Z,15.41
2019-04-29T10:52:46.901Z,15.26
2019-04-29T10:53:51.034Z,15.35
2019-04-29T10:54:51.247Z,15.47
2019-04-29T10:55:48.789Z,15.48
2019-04-29T10:56:47.241Z,15.59
2019-04-29T10:57:49.727Z,15.68
2019-04-29T10:58:46.822Z,15.77
2019-04-29T10:59:50.027Z,15.70
2019-04-29T11:00:46.815Z,15.83
2019-04-29T11:01:54.634Z,15.81
2019-04-29T11:02:49.401Z,15.69
2019-04-29T11:03:46.771Z,15.54
2019-04-29T11:04:46.760Z,15.80
2019-04-29T11:06:00.106Z,15.80
2019-04-29T11:06:47.804Z,15.87
2019-04-29T11:07:46.816Z,16.02
2019-04-29T11:08:46.709Z,16.36
2019-04-29T11:09:50.829Z,16.47
2019-04-29T11:10:47.693Z,16.46
2019-04-29T11:11:46.714Z,16.49
2019-04-29T11:12:46.680Z,16.28
2019-04-29T11:13:50.333Z,16.17
2019-04-29T11:14:46.664Z,15.85
2019-04-29T11:15:49.431Z,15.68
2019-04-29T11:16:47.114Z,15.76
2019-04-29T11:17:46.694Z,15.78
2019-04-29T11:18:46.594Z,15.80
2019-04-29T11:19:46.647Z,15.85
2019-04-29T11:20:48.833Z,15.81
2019-04-29T11:21:47.623Z,15.72
2019-04-29T11:22:46.754Z,15.65
2019-04-29T11:23:50.558Z,15.56
2019-04-29T11:24:47.656Z,15.41
2019-04-29T11:25:50.988Z,15.60
2019-04-29T11:26:46.631Z,15.73
2019-04-29T11:27:46.649Z,15.83
2019-04-29T11:28:46.977Z,15.93
2019-04-29T11:29:46.543Z,16.03
2019-04-29T11:30:49.446Z,16.28
2019-04-29T11:31:49.104Z,16.36
2019-04-29T11:32:48.188Z,16.39
2019-04-29T11:33:46.475Z,16.43
2019-04-29T11:34:48.340Z,16.43
2019-04-29T11:35:47.444Z,16.44
2019-04-29T11:36:46.436Z,16.55
2019-04-29T11:37:50.070Z,16.44
2019-04-29T11:38:47.447Z,16.58
2019-04-29T11:39:50.216Z,16.70
2019-04-29T11:40:47.349Z,16.95
2019-04-29T11:41:47.287Z,16.88
2019-04-29T11:42:46.353Z,16.79
2019-04-29T11:43:50.463Z,16.90
2019-04-29T11:44:46.351Z,16.91
2019-04-29T11:45:46.444Z,17.13
2019-04-29T11:46:48.980Z,17.10
2019-04-29T11:47:46.432Z,16.77
2019-04-29T11:48:46.362Z,16.57
2019-04-29T11:49:47.917Z,16.58
2019-04-29T11:50:50.163Z,16.54
2019-04-29T11:52:07.919Z,16.62
2019-04-29T11:52:47.458Z,16.62
2019-04-29T11:53:46.287Z,16.80
2019-04-29T11:54:46.208Z,16.90
2019-04-29T11:55:46.516Z,17.01
2019-04-29T11:56:46.220Z,17.13
2019-04-29T11:57:46.155Z,17.10
2019-04-29T11:58:46.156Z,16.92
2019-04-29T11:59:46.220Z,16.88
2019-04-29T12:00:46.959Z,16.84
2019-04-29T12:01:50.925Z,16.88
2019-04-29T12:02:47.107Z,16.87
2019-04-29T12:03:46.103Z,17.01
2019-04-29T12:04:46.102Z,17.09
2019-04-29T12:05:46.336Z,16.77
2019-04-29T12:06:46.067Z,16.90
2019-04-29T12:07:46.055Z,17.13
2019-04-29T12:08:48.126Z,17.27
2019-04-29T12:09:47.024Z,17.10
2019-04-29T12:10:51.805Z,17.07
2019-04-29T12:11:47.002Z,17.13
2019-04-29T12:12:47.701Z,17.10
2019-04-29T12:13:45.998Z,17.13
2019-04-29T12:14:45.993Z,17.06
2019-04-29T12:15:49.231Z,17.02
2019-04-29T12:16:46.001Z,17.14
2019-04-29T12:17:45.963Z,17.13
2019-04-29T12:18:45.934Z,17.12
2019-04-29T12:19:45.964Z,17.09
2019-04-29T12:20:45.910Z,17.07
2019-04-29T12:21:45.906Z,16.98
2019-04-29T12:22:48.709Z,17.10
2019-04-29T12:23:47.669Z,17.28
2019-04-29T12:24:46.860Z,17.32
2019-04-29T12:25:45.840Z,17.49
2019-04-29T12:26:45.898Z,17.39
2019-04-29T12:27:45.847Z,17.31
2019-04-29T12:28:45.877Z,17.31
2019-04-29T12:29:48.791Z,17.34
2019-04-29T12:30:46.789Z,17.07
2019-04-29T12:31:49.264Z,17.10
2019-04-29T12:32:46.881Z,17.17
2019-04-29T12:33:45.758Z,17.38
2019-04-29T12:34:45.754Z,17.75
2019-04-29T12:35:51.893Z,17.88
2019-04-29T12:36:55.971Z,17.91
2019-04-29T12:37:46.757Z,17.79
2019-04-29T12:38:49.663Z,17.75
2019-04-29T12:39:46.716Z,17.41
2019-04-29T12:40:50.216Z,17.02
2019-04-29T12:41:49.143Z,17.07
2019-04-29T12:42:45.838Z,17.09
2019-04-29T12:43:48.683Z,17.37
2019-04-29T12:44:46.832Z,17.52
2019-04-29T12:45:45.743Z,17.87
2019-04-29T12:46:45.612Z,18.02
2019-04-29T12:47:45.637Z,18.08
2019-04-29T12:48:45.582Z,18.11
2019-04-29T12:49:46.361Z,18.24
2019-04-29T12:50:45.611Z,17.93
2019-04-29T12:51:45.562Z,17.53
2019-04-29T12:52:45.583Z,17.49
2019-04-29T12:53:45.534Z,17.38
2019-04-29T12:54:46.073Z,17.47
2019-04-29T12:55:49.473Z,17.50
2019-04-29T12:56:48.057Z,17.32
2019-04-29T12:57:45.483Z,17.45
2019-04-29T12:58:50.442Z,17.47
2019-04-29T12:59:46.482Z,17.49
2019-04-29T13:00:48.244Z,17.63
2019-04-29T13:01:51.300Z,17.75
2019-04-29T13:02:46.473Z,17.43
2019-04-29T13:03:45.443Z,17.22
2019-04-29T13:04:49.766Z,17.22
2019-04-29T13:05:57.600Z,17.20
2019-04-29T13:06:46.424Z,17.20
2019-04-29T13:07:45.490Z,17.38
2019-04-29T13:08:45.395Z,17.65